Time;durP1;ratioP1;P1;durP2;ratioP2;P2;SDS_P1;SDS_P2;PMS_P1;PMS_P2;Temp;Humidity;BMP_temperature;BMP_pressure;BME280_temperature;BME280_humidity;BME280_pressure;Samples;Min_cycle;Max_cycle;Signal;HPM_P1;HPM_P2
2023/09/25 00:00:17;;;;;;;2.67;1.97;;;16.70;62.90;;;;;;5090494;28;20201;-74
2023/09/25 00:02:45;;;;;;;3.07;1.93;;;16.60;62.70;;;;;;5090041;28;20958;-74
2023/09/25 00:05:11;;;;;;;3.17;2.10;;;16.60;62.80;;;;;;5089995;28;20454;-74
2023/09/25 00:07:40;;;;;;;3.13;2.20;;;16.60;63.00;;;;;;5088186;28;20565;-74
2023/09/25 00:10:08;;;;;;;2.30;2.00;;;16.50;63.00;;;;;;5089741;28;20466;-75
2023/09/25 00:12:35;;;;;;;3.20;2.20;;;16.50;63.20;;;;;;5089292;28;20664;-75
2023/09/25 00:15:05;;;;;;;2.50;2.00;;;16.50;63.30;;;;;;5089886;28;20450;-75
2023/09/25 00:17:32;;;;;;;4.57;2.47;;;16.50;63.40;;;;;;5089537;28;20449;-74
2023/09/25 00:19:59;;;;;;;3.10;2.20;;;16.50;63.40;;;;;;5089932;28;20466;-75
2023/09/25 00:22:25;;;;;;;2.87;2.20;;;16.50;63.40;;;;;;5089423;28;20459;-74
2023/09/25 00:24:52;;;;;;;2.53;2.20;;;16.50;63.40;;;;;;5089656;28;20817;-74
2023/09/25 00:27:22;;;;;;;2.67;1.93;;;16.60;63.30;;;;;;5089111;28;20486;-75
2023/09/25 00:29:48;;;;;;;3.20;2.53;;;16.60;63.50;;;;;;5089621;28;20447;-75
2023/09/25 00:32:16;;;;;;;2.80;2.40;;;16.60;63.30;;;;;;5089118;28;20453;-75
2023/09/25 00:34:43;;;;;;;3.50;2.00;;;16.60;63.30;;;;;;5086282;28;20515;-74
2023/09/25 00:37:10;;;;;;;4.50;2.27;;;16.60;63.30;;;;;;5089043;28;20443;-75
2023/09/25 00:39:36;;;;;;;4.33;2.13;;;16.60;63.50;;;;;;5089220;28;20472;-75
2023/09/25 00:42:03;;;;;;;2.63;2.43;;;16.60;63.30;;;;;;5089000;28;20457;-75
2023/09/25 00:44:32;;;;;;;4.13;2.70;;;16.60;63.30;;;;;;5089018;28;21099;-75
2023/09/25 00:46:59;;;;;;;2.73;2.10;;;16.50;63.60;;;;;;5089698;28;20752;-75
2023/09/25 00:49:27;;;;;;;3.10;2.23;;;16.60;64.50;;;;;;5088996;28;20562;-75
2023/09/25 00:51:54;;;;;;;3.17;2.37;;;16.50;63.70;;;;;;5086666;28;20466;-75
2023/09/25 00:54:21;;;;;;;3.37;2.20;;;16.50;63.70;;;;;;5088770;28;20446;-75
2023/09/25 00:56:49;;;;;;;2.27;2.00;;;16.50;63.70;;;;;;5088052;28;20449;-75
2023/09/25 00:59:16;;;;;;;3.67;2.03;;;16.40;63.70;;;;;;5089488;28;21080;-74
2023/09/25 01:01:45;;;;;;;2.97;2.20;;;16.40;63.60;;;;;;5089216;28;20458;-75
2023/09/25 01:04:12;;;;;;;3.20;2.30;;;16.40;63.60;;;;;;5087858;28;20966;-74
2023/09/25 01:06:38;;;;;;;3.47;2.70;;;16.40;63.70;;;;;;5088834;28;20484;-74
2023/09/25 01:09:08;;;;;;;3.17;2.27;;;16.30;63.80;;;;;;5088992;28;20537;-74
2023/09/25 01:11:35;;;;;;;3.17;2.40;;;16.30;64.00;;;;;;5090222;28;20516;-74
2023/09/25 01:14:03;;;;;;;3.30;2.60;;;16.30;64.10;;;;;;5088462;28;20459;-74
2023/09/25 01:16:30;;;;;;;2.67;2.27;;;16.20;64.20;;;;;;5088611;28;20439;-74
2023/09/25 01:18:59;;;;;;;2.73;2.13;;;16.20;64.30;;;;;;5081768;28;20545;-74
2023/09/25 01:21:25;;;;;;;2.77;2.30;;;16.10;64.30;;;;;;5068499;28;20978;-74
2023/09/25 01:23:54;;;;;;;3.70;2.50;;;16.10;64.30;;;;;;5084602;28;20454;-74
2023/09/25 01:26:20;;;;;;;2.93;2.40;;;16.10;64.30;;;;;;5089206;28;20474;-74
2023/09/25 01:28:47;;;;;;;2.57;2.13;;;16.00;64.30;;;;;;5088774;28;20469;-74
2023/09/25 01:31:14;;;;;;;2.20;2.00;;;16.00;64.50;;;;;;5088412;28;20459;-73
2023/09/25 01:33:41;;;;;;;2.03;1.83;;;15.90;64.50;;;;;;5088727;28;20462;-73
2023/09/25 01:36:11;;;;;;;2.80;2.43;;;15.90;64.70;;;;;;5088728;28;20465;-73
2023/09/25 01:38:38;;;;;;;3.80;2.10;;;15.90;64.70;;;;;;5088415;28;20520;-73
2023/09/25 01:41:05;;;;;;;3.37;2.50;;;15.90;64.80;;;;;;5088208;28;20476;-73
2023/09/25 01:43:35;;;;;;;2.73;2.20;;;15.90;64.80;;;;;;5089073;28;20478;-73
2023/09/25 01:46:05;;;;;;;2.53;2.30;;;15.80;64.80;;;;;;5089259;28;21149;-73
2023/09/25 01:48:32;;;;;;;2.27;2.07;;;15.80;64.80;;;;;;5089002;28;20481;-73
2023/09/25 01:50:59;;;;;;;2.70;2.00;;;15.80;65.00;;;;;;5088440;28;20494;-73
2023/09/25 01:53:25;;;;;;;2.43;2.10;;;15.80;65.00;;;;;;5089644;28;20480;-73
2023/09/25 01:55:52;;;;;;;3.20;2.13;;;15.70;65.00;;;;;;5088876;28;20529;-73
2023/09/25 01:58:20;;;;;;;2.83;2.30;;;15.70;65.00;;;;;;5088141;28;20442;-74
2023/09/25 02:00:47;;;;;;;2.47;2.07;;;15.60;65.10;;;;;;5089104;28;20802;-73
2023/09/25 02:03:14;;;;;;;3.30;2.43;;;15.60;65.30;;;;;;5089476;28;20459;-72
2023/09/25 02:05:44;;;;;;;2.80;2.47;;;15.60;65.50;;;;;;5092323;28;20926;-73
2023/09/25 02:08:11;;;;;;;3.07;2.23;;;15.60;65.70;;;;;;5093543;28;20833;-73
2023/09/25 02:10:38;;;;;;;2.23;2.03;;;15.50;65.60;;;;;;5093617;28;20465;-72
2023/09/25 02:13:05;;;;;;;2.77;2.07;;;15.50;65.60;;;;;;5093025;28;20856;-74
2023/09/25 02:15:34;;;;;;;2.53;2.20;;;15.50;65.70;;;;;;5093543;28;20559;-74
2023/09/25 02:18:05;;;;;;;3.90;2.87;;;15.40;65.80;;;;;;5093439;28;20458;-73
2023/09/25 02:20:32;;;;;;;2.50;2.20;;;15.40;65.90;;;;;;5093295;28;20992;-74
2023/09/25 02:23:02;;;;;;;3.07;2.30;;;15.40;65.80;;;;;;5093191;28;20458;-74
2023/09/25 02:25:29;;;;;;;3.70;2.83;;;15.40;65.90;;;;;;5093122;28;20507;-72
2023/09/25 02:27:56;;;;;;;3.37;2.40;;;15.30;65.80;;;;;;5093345;28;20478;-72
2023/09/25 02:30:23;;;;;;;3.17;2.70;;;15.30;65.70;;;;;;5093535;28;20456;-74
2023/09/25 02:32:51;;;;;;;2.50;2.30;;;15.30;65.90;;;;;;5094206;28;20882;-74
2023/09/25 02:35:18;;;;;;;3.27;2.80;;;15.30;65.90;;;;;;5092699;28;20457;-73
2023/09/25 02:37:45;;;;;;;2.30;2.10;;;15.30;66.10;;;;;;5093105;28;20808;-74
2023/09/25 02:40:13;;;;;;;3.30;2.63;;;15.20;66.20;;;;;;5092496;28;20554;-74
2023/09/25 02:42:40;;;;;;;3.70;2.70;;;15.30;66.40;;;;;;5093064;28;20465;-74
2023/09/25 02:45:11;;;;;;;6.90;2.47;;;15.20;67.20;;;;;;5092576;28;20524;-74
2023/09/25 02:47:40;;;;;;;2.73;2.40;;;15.20;66.60;;;;;;5092925;28;20819;-74
2023/09/25 02:50:11;;;;;;;3.37;2.90;;;15.20;66.80;;;;;;5092823;28;20725;-74
2023/09/25 02:52:42;;;;;;;3.63;2.40;;;15.20;67.20;;;;;;5092684;28;20543;-73
2023/09/25 02:55:09;;;;;;;2.80;2.30;;;15.30;67.40;;;;;;5092553;28;21034;-72
2023/09/25 02:57:39;;;;;;;2.40;2.17;;;15.30;67.40;;;;;;5092804;28;20550;-73
2023/09/25 03:00:10;;;;;;;3.83;2.60;;;15.30;67.30;;;;;;5092542;28;20462;-73
2023/09/25 03:02:38;;;;;;;2.93;2.37;;;15.40;67.20;;;;;;5092658;28;20446;-73
2023/09/25 03:05:06;;;;;;;3.27;2.60;;;15.40;67.20;;;;;;5092187;28;20779;-73
2023/09/25 03:07:42;;;;;;;4.23;2.43;;;15.40;66.90;;;;;;5092481;28;20514;-72
2023/09/25 03:10:12;;;;;;;3.83;2.63;;;15.40;66.70;;;;;;5092147;28;20457;-73
2023/09/25 03:12:46;;;;;;;2.93;2.37;;;15.40;66.60;;;;;;5092483;28;20477;-73
2023/09/25 03:15:14;;;;;;;2.50;2.30;;;15.40;66.70;;;;;;5092162;28;20419;-73
2023/09/25 03:17:41;;;;;;;3.13;2.70;;;15.50;66.90;;;;;;5091685;28;20445;-73
2023/09/25 03:20:14;;;;;;;2.80;2.50;;;15.50;66.90;;;;;;5092257;28;20457;-73
2023/09/25 03:22:43;;;;;;;3.13;2.50;;;15.50;66.70;;;;;;5092096;28;20458;-73
2023/09/25 03:25:13;;;;;;;3.43;2.57;;;15.50;66.70;;;;;;5091727;28;20466;-73
2023/09/25 03:27:44;;;;;;;4.00;2.67;;;15.50;66.60;;;;;;5092183;28;20830;-73
2023/09/25 03:30:14;;;;;;;3.33;2.67;;;15.50;66.30;;;;;;5092313;28;20467;-73
2023/09/25 03:32:44;;;;;;;3.47;2.70;;;15.50;66.20;;;;;;5096871;28;20942;-72
2023/09/25 03:35:13;;;;;;;3.50;2.77;;;15.50;66.20;;;;;;5098004;28;20451;-73
2023/09/25 03:37:42;;;;;;;4.17;2.60;;;15.50;66.20;;;;;;5092187;28;20475;-72
2023/09/25 03:40:12;;;;;;;5.23;2.60;;;15.50;66.20;;;;;;5092978;28;20458;-73
2023/09/25 03:42:42;;;;;;;4.07;2.60;;;15.40;66.20;;;;;;5091839;28;20515;-73
2023/09/25 03:45:10;;;;;;;4.27;2.30;;;15.30;66.20;;;;;;5091233;28;20486;-73
2023/09/25 03:47:39;;;;;;;3.20;2.57;;;15.30;66.40;;;;;;5092628;28;20482;-72
2023/09/25 03:50:10;;;;;;;2.90;2.37;;;15.20;66.60;;;;;;5093672;28;20469;-74
2023/09/25 03:52:40;;;;;;;4.57;3.07;;;15.20;66.60;;;;;;5093110;28;20478;-73
2023/09/25 03:55:09;;;;;;;2.97;2.17;;;15.10;66.70;;;;;;5090732;28;20553;-74
2023/09/25 03:57:40;;;;;;;3.77;2.30;;;15.10;66.70;;;;;;5092814;28;20446;-74
2023/09/25 04:00:10;;;;;;;3.17;2.20;;;15.10;66.90;;;;;;5092874;28;20807;-73
2023/09/25 04:02:40;;;;;;;3.00;2.47;;;15.00;66.70;;;;;;5092384;28;20538;-73
2023/09/25 04:05:08;;;;;;;3.40;2.20;;;15.00;66.70;;;;;;5092373;28;20454;-73
2023/09/25 04:07:40;;;;;;;2.70;2.40;;;14.90;66.70;;;;;;5092151;28;20493;-73
2023/09/25 04:10:10;;;;;;;3.37;2.40;;;14.90;67.00;;;;;;5093057;28;20447;-73
2023/09/25 04:12:39;;;;;;;2.57;2.23;;;14.90;67.30;;;;;;5092184;28;20457;-72
2023/09/25 04:15:13;;;;;;;3.03;2.30;;;14.90;67.30;;;;;;5091987;28;20469;-74
2023/09/25 04:17:44;;;;;;;3.47;2.57;;;14.80;67.10;;;;;;5092409;28;20728;-73
2023/09/25 04:20:24;;;;;;;5.80;2.90;;;14.80;67.20;;;;;;5092453;28;20447;-73
2023/09/25 04:22:56;;;;;;;4.90;2.77;;;14.80;67.90;;;;;;5091601;28;20482;-73
2023/09/25 04:25:32;;;;;;;4.93;2.73;;;14.70;68.70;;;;;;5091741;28;20452;-73
2023/09/25 04:28:02;;;;;;;3.23;2.50;;;14.70;68.90;;;;;;5090721;28;20486;-73
2023/09/25 04:30:32;;;;;;;4.70;2.33;;;14.60;67.70;;;;;;5092006;28;20516;-74
2023/09/25 04:33:02;;;;;;;4.87;2.90;;;14.60;68.50;;;;;;5091770;28;20451;-73
2023/09/25 04:35:34;;;;;;;3.83;2.50;;;14.60;69.10;;;;;;5090709;28;20475;-73
2023/09/25 04:38:07;;;;;;;3.77;2.17;;;14.60;69.00;;;;;;5074603;28;20542;-73
2023/09/25 04:40:33;;;;;;;2.90;2.40;;;14.60;69.30;;;;;;5092108;28;20447;-74
2023/09/25 04:43:03;;;;;;;3.97;2.47;;;14.50;68.90;;;;;;5091401;28;20934;-73
2023/09/25 04:45:58;;;;;;;3.97;2.60;;;14.50;68.90;;;;;;5089782;28;20197;-73
2023/09/25 04:48:25;;;;;;;3.80;2.67;;;14.40;69.20;;;;;;5085127;28;20498;-73
2023/09/25 04:50:52;;;;;;;4.30;2.33;;;14.40;68.60;;;;;;5091592;28;20485;-73
2023/09/25 04:53:20;;;;;;;3.37;2.27;;;14.40;68.60;;;;;;5091612;28;20456;-73
2023/09/25 04:55:47;;;;;;;2.90;2.23;;;14.40;68.80;;;;;;5089913;28;20466;-73
2023/09/25 04:58:15;;;;;;;4.10;2.37;;;14.40;68.90;;;;;;5091193;28;20466;-73
2023/09/25 05:00:44;;;;;;;5.27;2.70;;;14.40;69.20;;;;;;5092070;28;20468;-73
2023/09/25 05:03:11;;;;;;;3.67;2.60;;;14.30;69.20;;;;;;5091100;28;20481;-73
2023/09/25 05:05:37;;;;;;;3.30;3.00;;;14.30;69.30;;;;;;5091465;28;20466;-73
2023/09/25 05:08:05;;;;;;;3.37;2.57;;;14.30;69.20;;;;;;5092390;28;20487;-72
2023/09/25 05:10:32;;;;;;;3.60;2.70;;;14.30;69.20;;;;;;5091405;28;20478;-72
2023/09/25 05:12:58;;;;;;;3.27;2.70;;;14.20;69.90;;;;;;5091415;28;20466;-73
2023/09/25 05:15:27;;;;;;;2.73;2.43;;;14.30;69.20;;;;;;5091271;28;20966;-72
2023/09/25 05:17:54;;;;;;;4.43;2.70;;;14.30;70.00;;;;;;5091850;28;20448;-73
2023/09/25 05:20:24;;;;;;;2.63;2.37;;;14.30;69.20;;;;;;5091415;28;20458;-72
2023/09/25 05:22:53;;;;;;;3.13;2.50;;;14.30;69.20;;;;;;5090064;28;20953;-73
2023/09/25 05:25:21;;;;;;;3.77;2.60;;;14.30;68.70;;;;;;5091277;28;20818;-73
2023/09/25 05:27:49;;;;;;;3.37;2.30;;;14.30;69.40;;;;;;5091847;28;20579;-73
2023/09/25 05:30:17;;;;;;;2.60;2.40;;;14.30;69.70;;;;;;5091204;28;20958;-71
2023/09/25 05:32:49;;;;;;;4.77;2.43;;;14.20;69.60;;;;;;5090583;28;20534;-73
2023/09/25 05:35:19;;;;;;;3.77;2.50;;;14.30;69.90;;;;;;5091587;28;20856;-77
2023/09/25 05:37:51;;;;;;;2.90;2.60;;;14.20;69.90;;;;;;5093502;28;20446;-77
2023/09/25 05:40:27;;;;;;;3.13;2.63;;;14.20;69.60;;;;;;5095744;28;20472;-78
2023/09/25 05:43:20;;;;;;;;;;;;;;;;;;;;;
2023/09/25 05:45:47;;;;;;;2.90;2.60;;;14.30;69.40;;;;;;5078461;28;20449;-76
2023/09/25 05:48:15;;;;;;;4.10;2.50;;;14.20;69.70;;;;;;5095090;28;20471;-75
2023/09/25 05:50:44;;;;;;;2.80;2.47;;;14.30;69.90;;;;;;5095318;28;20476;-78
2023/09/25 05:53:14;;;;;;;2.70;2.50;;;14.30;70.10;;;;;;5094721;28;20455;-76
2023/09/25 05:55:44;;;;;;;3.50;3.00;;;14.20;70.20;;;;;;5094979;28;20450;-76
2023/09/25 05:58:14;;;;;;;3.10;2.60;;;14.30;70.60;;;;;;5095359;28;20452;-74
2023/09/25 06:00:46;;;;;;;3.90;2.60;;;14.30;70.70;;;;;;5095265;28;20458;-73
2023/09/25 06:03:17;;;;;;;3.60;2.50;;;14.30;70.80;;;;;;5094873;28;20474;-72
2023/09/25 06:05:47;;;;;;;3.63;2.43;;;14.30;70.70;;;;;;5073815;28;20911;-73
2023/09/25 06:08:16;;;;;;;3.17;2.30;;;14.40;70.60;;;;;;5090099;28;20482;-74
2023/09/25 06:10:50;;;;;;;3.00;2.57;;;14.40;70.80;;;;;;5093946;28;20474;-73
2023/09/25 06:13:17;;;;;;;3.20;2.40;;;14.50;70.50;;;;;;5094612;28;20446;-73
2023/09/25 06:15:50;;;;;;;3.67;2.70;;;14.50;70.20;;;;;;5094572;28;20750;-73
2023/09/25 06:18:20;;;;;;;4.60;2.43;;;14.60;70.50;;;;;;5094223;28;20462;-74
2023/09/25 06:20:48;;;;;;;2.73;2.27;;;14.70;70.50;;;;;;5094873;28;20546;-78
2023/09/25 06:23:21;;;;;;;3.53;2.33;;;14.70;70.50;;;;;;5093159;28;20482;-79
2023/09/25 06:25:50;;;;;;;4.53;2.70;;;14.80;70.50;;;;;;5098414;28;20533;-78
2023/09/25 06:28:23;;;;;;;3.00;2.40;;;14.90;70.20;;;;;;5099781;28;20500;-78
2023/09/25 06:30:53;;;;;;;4.57;2.50;;;15.00;70.10;;;;;;5094712;28;20434;-77
2023/09/25 06:33:22;;;;;;;4.03;2.63;;;15.00;70.00;;;;;;5093937;28;20442;-78
2023/09/25 06:35:52;;;;;;;3.73;2.63;;;15.10;69.80;;;;;;5089078;28;20478;-78
2023/09/25 06:38:22;;;;;;;3.80;2.20;;;15.20;70.30;;;;;;5093795;28;20438;-79
2023/09/25 06:40:52;;;;;;;3.90;2.30;;;15.30;70.20;;;;;;5093855;28;20822;-79
2023/09/25 06:43:19;;;;;;;2.80;2.20;;;15.30;70.10;;;;;;5093765;28;20553;-78
2023/09/25 06:45:46;;;;;;;3.37;2.23;;;15.40;69.90;;;;;;5093942;28;20536;-79
2023/09/25 06:48:18;;;;;;;4.60;2.57;;;15.50;69.90;;;;;;5092971;28;20493;-78
2023/09/25 06:50:47;;;;;;;3.17;2.50;;;15.50;70.00;;;;;;5093259;28;20423;-79
2023/09/25 06:53:17;;;;;;;2.60;2.40;;;15.60;69.90;;;;;;5093715;28;20477;-78
2023/09/25 06:55:47;;;;;;;2.63;2.40;;;15.70;69.80;;;;;;5093850;28;20535;-78
2023/09/25 06:58:17;;;;;;;2.90;2.60;;;15.80;69.40;;;;;;5094076;28;20443;-78
2023/09/25 07:00:48;;;;;;;3.10;2.60;;;15.90;69.20;;;;;;5093832;28;20460;-79
2023/09/25 07:03:16;;;;;;;3.03;2.30;;;15.90;68.80;;;;;;5093862;28;20530;-80
2023/09/25 07:05:44;;;;;;;2.73;2.03;;;16.00;68.50;;;;;;5093285;28;20474;-79
2023/09/25 07:08:15;;;;;;;4.33;2.40;;;16.10;68.50;;;;;;5093808;28;20982;-78
2023/09/25 07:10:46;;;;;;;3.90;2.60;;;16.20;68.70;;;;;;5092455;28;20541;-79
2023/09/25 07:13:16;;;;;;;2.73;2.10;;;16.20;68.50;;;;;;5093840;28;20442;-81
2023/09/25 07:15:45;;;;;;;3.27;2.23;;;16.30;68.80;;;;;;5093345;28;20522;-80
2023/09/25 07:18:17;;;;;;;2.37;2.03;;;16.40;68.50;;;;;;5093542;28;20509;-79
2023/09/25 07:20:47;;;;;;;3.00;2.27;;;16.50;68.10;;;;;;5072432;28;20448;-78
2023/09/25 07:23:18;;;;;;;3.17;2.27;;;16.60;67.90;;;;;;5073818;28;20534;-79
2023/09/25 07:25:47;;;;;;;2.40;2.20;;;16.60;67.40;;;;;;5082015;28;20484;-79
2023/09/25 07:28:17;;;;;;;3.73;2.43;;;16.70;66.70;;;;;;5093429;28;20489;-79
2023/09/25 07:30:47;;;;;;;4.97;2.50;;;16.80;66.70;;;;;;5093130;28;20463;-79
2023/09/25 07:33:16;;;;;;;2.50;2.20;;;16.90;66.90;;;;;;5093250;28;20525;-79
2023/09/25 07:35:43;;;;;;;3.00;2.03;;;17.00;66.60;;;;;;5093501;28;20554;-78
2023/09/25 07:38:13;;;;;;;5.43;2.37;;;17.10;67.50;;;;;;5093177;28;20443;-79
2023/09/25 07:40:44;;;;;;;2.83;2.13;;;17.20;65.60;;;;;;5093205;28;20893;-79
2023/09/25 07:43:19;;;;;;;3.03;2.30;;;17.30;65.80;;;;;;5092785;28;20884;-79
2023/09/25 07:45:51;;;;;;;4.53;2.60;;;17.30;67.00;;;;;;5093009;28;20488;-80
2023/09/25 07:48:21;;;;;;;3.13;2.20;;;17.40;66.90;;;;;;5093431;28;21000;-79
2023/09/25 07:50:55;;;;;;;2.20;2.00;;;17.50;66.00;;;;;;5091149;28;20474;-79
2023/09/25 07:53:28;;;;;;;2.87;2.40;;;17.60;65.80;;;;;;5090009;28;20652;-78
2023/09/25 07:55:59;;;;;;;4.00;2.20;;;17.70;65.80;;;;;;5092803;28;20220;-79
2023/09/25 07:58:39;;;;;;;4.13;2.17;;;17.80;66.60;;;;;;5091752;28;20275;-79
2023/09/25 08:01:08;;;;;;;2.60;2.23;;;17.90;66.30;;;;;;5091938;28;20466;-78
2023/09/25 08:03:39;;;;;;;3.20;2.23;;;18.00;65.30;;;;;;5092215;28;20583;-78
2023/09/25 08:06:11;;;;;;;3.23;2.37;;;18.10;63.90;;;;;;5092582;28;20474;-78
2023/09/25 08:08:40;;;;;;;2.77;2.00;;;18.20;64.30;;;;;;5092890;28;20548;-79
2023/09/25 08:11:09;;;;;;;2.90;1.90;;;18.20;64.10;;;;;;5092333;28;20267;-80
2023/09/25 08:13:39;;;;;;;3.50;2.10;;;18.30;63.80;;;;;;5093020;28;20200;-78
2023/09/25 08:16:11;;;;;;;3.47;2.20;;;18.40;64.10;;;;;;5092074;28;20228;-78
2023/09/25 08:18:40;;;;;;;3.50;2.20;;;18.60;65.10;;;;;;5092605;28;20193;-79
2023/09/25 08:21:12;;;;;;;3.83;2.43;;;18.70;64.30;;;;;;5093200;28;20295;-78
2023/09/25 08:23:43;;;;;;;2.77;2.10;;;18.80;64.40;;;;;;5092407;28;20211;-79
2023/09/25 08:26:16;;;;;;;3.13;2.10;;;18.90;63.50;;;;;;5092723;28;20314;-80
2023/09/25 08:28:45;;;;;;;4.50;2.00;;;19.00;62.90;;;;;;5090632;28;20220;-79
2023/09/25 08:31:11;;;;;;;2.67;1.90;;;19.20;63.40;;;;;;5091022;28;20196;-79
2023/09/25 08:33:41;;;;;;;4.00;2.00;;;19.30;63.40;;;;;;5092385;28;20219;-80
2023/09/25 08:36:10;;;;;;;2.30;2.03;;;19.40;62.30;;;;;;5092301;28;20284;-80
2023/09/25 08:38:39;;;;;;;3.33;2.03;;;19.50;62.10;;;;;;5091728;28;20208;-79
2023/09/25 08:41:10;;;;;;;4.13;2.20;;;19.70;63.00;;;;;;5091662;28;20251;-79
2023/09/25 08:43:40;;;;;;;4.63;2.30;;;19.80;62.60;;;;;;5090458;28;20216;-79
2023/09/25 08:46:11;;;;;;;2.70;2.10;;;19.90;62.00;;;;;;5091901;28;20235;-79
2023/09/25 08:48:38;;;;;;;3.10;1.90;;;20.00;61.50;;;;;;5091910;28;20315;-79
2023/09/25 08:51:08;;;;;;;2.57;2.00;;;20.10;61.30;;;;;;5091932;28;20235;-80
2023/09/25 08:53:39;;;;;;;3.00;1.97;;;20.20;61.30;;;;;;5092327;28;20211;-79
2023/09/25 08:56:12;;;;;;;2.90;2.20;;;20.30;61.70;;;;;;5091914;28;20279;-79
2023/09/25 08:59:24;;;;;;;2.53;2.03;;;20.50;62.00;;;;;;5088698;28;20193;-79
2023/09/25 09:01:54;;;;;;;2.23;1.97;;;20.60;61.80;;;;;;5089513;28;20194;-80
2023/09/25 09:04:26;;;;;;;2.73;2.07;;;20.80;62.80;;;;;;5055671;28;20197;-79
2023/09/25 09:06:56;;;;;;;2.27;2.00;;;20.90;61.40;;;;;;5091793;28;20605;-78
2023/09/25 09:09:43;;;;;;;2.80;1.87;;;21.00;60.50;;;;;;5091815;28;20259;-79
2023/09/25 09:12:10;;;;;;;2.30;2.03;;;21.10;60.60;;;;;;5091115;28;20246;-79
2023/09/25 09:14:40;;;;;;;2.57;2.10;;;21.30;59.50;;;;;;5090509;28;20687;-78
2023/09/25 09:17:11;;;;;;;2.97;2.30;;;21.40;59.60;;;;;;5091769;28;20711;-79
2023/09/25 09:19:52;;;;;;;4.30;2.10;;;21.50;59.60;;;;;;5091842;28;20280;-78
2023/09/25 09:22:21;;;;;;;2.93;2.17;;;21.60;60.20;;;;;;5111667;28;20235;-77
2023/09/25 09:24:53;;;;;;;3.03;2.07;;;21.70;59.80;;;;;;5112048;28;20744;-79
2023/09/25 09:27:24;;;;;;;2.03;1.70;;;21.90;59.00;;;;;;5111959;28;20318;-80
2023/09/25 09:29:57;;;;;;;3.87;2.20;;;22.00;58.20;;;;;;5111878;28;20743;-78
2023/09/25 09:32:29;;;;;;;2.03;1.80;;;22.10;58.20;;;;;;5096985;28;20195;-80
2023/09/25 09:34:59;;;;;;;4.23;2.00;;;22.30;58.70;;;;;;5090324;28;20275;-79
2023/09/25 09:37:26;;;;;;;4.27;2.60;;;22.40;58.50;;;;;;5091123;28;20208;-80
2023/09/25 09:39:55;;;;;;;2.60;2.23;;;22.50;57.50;;;;;;5090719;28;20311;-79
2023/09/25 09:42:24;;;;;;;3.37;2.10;;;22.70;58.00;;;;;;5091251;28;20220;-78
2023/09/25 09:44:53;;;;;;;2.37;2.03;;;22.80;57.40;;;;;;5091476;28;20713;-78
2023/09/25 09:47:24;;;;;;;4.60;2.43;;;23.00;57.20;;;;;;5090295;28;20224;-80
2023/09/25 09:49:52;;;;;;;2.97;2.13;;;23.10;56.70;;;;;;5091526;28;20257;-79
2023/09/25 09:52:20;;;;;;;3.03;2.30;;;23.30;56.90;;;;;;5091375;28;20279;-80
2023/09/25 09:54:50;;;;;;;2.50;2.10;;;23.40;56.30;;;;;;5091007;28;20208;-78
2023/09/25 09:57:18;;;;;;;4.13;2.50;;;23.40;54.80;;;;;;5090714;28;20208;-78
2023/09/25 09:59:49;;;;;;;4.40;2.30;;;23.30;54.50;;;;;;5090694;28;20302;-78
2023/09/25 10:02:22;;;;;;;3.23;2.00;;;23.40;54.90;;;;;;5091292;28;20188;-80
2023/09/25 10:04:51;;;;;;;2.53;2.03;;;23.50;54.90;;;;;;5091165;28;20276;-78
2023/09/25 10:07:29;;;;;;;4.93;2.30;;;23.60;53.70;;;;;;5090919;28;20233;-80
2023/09/25 10:09:57;;;;;;;3.23;2.03;;;23.60;53.40;;;;;;5090923;28;20280;-78
2023/09/25 10:12:41;;;;;;;1.97;1.77;;;23.70;54.30;;;;;;5071154;28;20653;-79
2023/09/25 10:15:12;;;;;;;2.60;2.00;;;23.90;53.50;;;;;;5077213;28;20729;-79
2023/09/25 10:17:46;;;;;;;1.97;1.77;;;24.10;53.20;;;;;;5089620;28;20200;-79
2023/09/25 10:20:33;;;;;;;2.37;1.80;;;24.20;53.30;;;;;;5090770;28;20289;-78
2023/09/25 10:23:04;;;;;;;2.40;2.00;;;24.40;52.70;;;;;;5091148;28;20703;-78
2023/09/25 10:25:32;;;;;;;2.83;1.87;;;24.50;52.00;;;;;;5091693;28;20236;-79
2023/09/25 10:27:59;;;;;;;2.87;1.80;;;24.60;52.70;;;;;;5094528;28;20219;-78
2023/09/25 10:30:27;;;;;;;2.77;1.93;;;24.60;52.50;;;;;;5093944;28;20562;-80
2023/09/25 10:32:57;;;;;;;2.83;2.10;;;24.80;51.50;;;;;;5094178;28;20632;-77
2023/09/25 10:35:42;;;;;;;3.47;2.10;;;24.90;52.00;;;;;;5093014;28;20196;-77
2023/09/25 10:38:21;;;;;;;2.40;1.70;;;25.00;51.40;;;;;;5090144;28;20563;-77
2023/09/25 10:40:50;;;;;;;2.53;1.93;;;25.20;51.10;;;;;;5093955;28;20582;-80
2023/09/25 10:43:22;;;;;;;3.23;1.80;;;25.40;51.10;;;;;;5094574;28;20199;-77
2023/09/25 10:45:49;;;;;;;2.43;1.43;;;25.50;50.70;;;;;;5093012;28;20251;-79
2023/09/25 10:48:22;;;;;;;2.00;1.80;;;25.60;50.20;;;;;;5094259;28;20303;-78
2023/09/25 10:50:52;;;;;;;1.97;1.80;;;25.60;49.20;;;;;;5094282;28;20299;-80
2023/09/25 10:53:22;;;;;;;2.37;1.87;;;25.70;49.30;;;;;;5093333;28;20288;-78
2023/09/25 10:55:52;;;;;;;3.60;1.83;;;25.70;48.80;;;;;;5092554;28;20220;-78
2023/09/25 10:58:21;;;;;;;2.00;1.63;;;25.80;49.00;;;;;;5093797;28;20243;-78
2023/09/25 11:00:51;;;;;;;3.43;2.00;;;25.90;49.00;;;;;;5088106;28;20617;-77
2023/09/25 11:03:22;;;;;;;2.70;1.93;;;26.00;48.20;;;;;;5093735;28;20211;-77
2023/09/25 11:05:52;;;;;;;2.50;1.77;;;26.00;48.00;;;;;;5092030;28;20211;-78
2023/09/25 11:08:22;;;;;;;2.03;1.77;;;26.10;47.50;;;;;;5093598;28;20219;-78
2023/09/25 11:10:50;;;;;;;2.10;1.90;;;26.10;47.80;;;;;;5093796;28;20224;-77
2023/09/25 11:13:20;;;;;;;2.03;1.63;;;26.20;48.60;;;;;;5093960;28;20205;-78
2023/09/25 11:15:49;;;;;;;4.13;2.10;;;26.40;48.60;;;;;;5093209;28;20224;-78
2023/09/25 11:18:20;;;;;;;2.87;1.80;;;26.40;48.20;;;;;;5093246;28;20254;-78
2023/09/25 11:20:48;;;;;;;3.43;1.93;;;26.50;46.80;;;;;;5093863;28;20204;-78
2023/09/25 11:23:19;;;;;;;3.60;1.90;;;26.60;47.40;;;;;;5092698;28;20232;-79
2023/09/25 11:25:51;;;;;;;2.60;1.90;;;26.70;47.30;;;;;;5093006;28;20201;-79
2023/09/25 11:28:22;;;;;;;2.60;2.00;;;26.80;46.50;;;;;;5094241;28;20219;-79
2023/09/25 11:30:54;;;;;;;2.53;1.90;;;26.80;46.30;;;;;;5092498;28;20236;-79
2023/09/25 11:33:23;;;;;;;2.77;1.90;;;26.90;46.60;;;;;;5054979;28;20646;-79
2023/09/25 11:35:54;;;;;;;2.40;2.07;;;27.00;47.10;;;;;;5072994;28;20630;-79
2023/09/25 11:38:23;;;;;;;3.43;2.10;;;27.20;46.90;;;;;;5073181;28;20466;-78
2023/09/25 11:40:52;;;;;;;2.50;2.10;;;27.30;46.00;;;;;;5073140;28;20214;-78
2023/09/25 11:43:19;;;;;;;2.10;1.90;;;27.50;45.50;;;;;;5092359;28;20321;-78
2023/09/25 11:45:49;;;;;;;3.03;2.00;;;27.50;44.90;;;;;;5092986;28;20306;-78
2023/09/25 11:48:19;;;;;;;2.07;1.87;;;27.60;46.10;;;;;;5093036;28;20229;-78
2023/09/25 11:50:48;;;;;;;2.63;1.93;;;27.70;46.50;;;;;;5093262;28;20295;-78
2023/09/25 11:53:18;;;;;;;2.90;2.10;;;27.80;46.80;;;;;;5092522;28;20221;-77
2023/09/25 11:55:48;;;;;;;2.60;1.87;;;28.00;45.60;;;;;;5092017;28;20557;-77
2023/09/25 11:58:18;;;;;;;1.97;1.60;;;28.10;46.10;;;;;;5093174;28;20604;-77
2023/09/25 12:00:48;;;;;;;2.20;1.83;;;28.20;45.50;;;;;;5091938;28;20223;-78
2023/09/25 12:03:16;;;;;;;3.53;2.00;;;28.30;45.20;;;;;;5092639;28;20228;-78
2023/09/25 12:05:46;;;;;;;2.70;1.97;;;28.30;44.20;;;;;;5092214;28;20204;-79
2023/09/25 12:08:17;;;;;;;3.37;1.93;;;28.50;44.70;;;;;;5091507;28;20210;-79
2023/09/25 12:10:47;;;;;;;2.63;1.93;;;28.60;44.70;;;;;;5092492;28;20699;-78
2023/09/25 12:13:18;;;;;;;2.63;2.00;;;28.80;44.80;;;;;;5092570;28;20211;-78
2023/09/25 12:15:47;;;;;;;3.00;1.80;;;28.90;44.20;;;;;;5091865;28;20882;-77
2023/09/25 12:18:18;;;;;;;1.90;1.70;;;28.90;44.50;;;;;;5092148;28;20775;-78
2023/09/25 12:20:51;;;;;;;3.37;2.00;;;29.00;44.50;;;;;;5091743;28;20180;-78
2023/09/25 12:23:20;;;;;;;2.20;1.83;;;29.10;44.60;;;;;;5092286;28;20199;-78
2023/09/25 12:25:47;;;;;;;3.50;2.30;;;29.20;43.60;;;;;;5091036;28;20279;-78
2023/09/25 12:28:17;;;;;;;2.70;1.90;;;29.20;43.90;;;;;;5092110;28;20291;-78
2023/09/25 12:30:46;;;;;;;2.80;2.00;;;29.20;43.40;;;;;;5092408;28;20216;-78
2023/09/25 12:33:21;;;;;;;2.50;2.10;;;29.30;43.70;;;;;;5091854;28;20203;-77
2023/09/25 12:35:50;;;;;;;2.30;1.97;;;29.50;43.60;;;;;;5092206;28;20224;-78
2023/09/25 12:38:19;;;;;;;1.90;1.73;;;29.50;43.20;;;;;;5092287;28;20207;-79
2023/09/25 12:40:49;;;;;;;2.57;1.97;;;29.70;43.50;;;;;;5091777;28;20207;-79
2023/09/25 12:43:26;;;;;;;2.77;1.90;;;29.80;43.00;;;;;;5091672;28;20664;-79
2023/09/25 12:45:55;;;;;;;2.10;1.80;;;29.90;42.30;;;;;;5091900;28;20184;-80
2023/09/25 12:48:26;;;;;;;1.60;1.50;;;30.00;42.60;;;;;;5091162;28;20313;-78
2023/09/25 12:50:56;;;;;;;2.67;1.90;;;30.10;43.00;;;;;;5090492;28;20216;-77
2023/09/25 12:53:27;;;;;;;2.53;1.97;;;30.20;42.70;;;;;;5091884;28;20308;-78
2023/09/25 12:55:54;;;;;;;2.70;2.27;;;30.30;42.20;;;;;;5091670;28;20270;-79
2023/09/25 12:58:21;;;;;;;2.87;2.03;;;30.40;42.20;;;;;;5092181;28;20293;-80
2023/09/25 13:00:48;;;;;;;4.23;2.23;;;30.60;41.90;;;;;;5091154;28;20209;-78